Time;durP1;ratioP1;P1;durP2;ratioP2;P2;SDS_P1;SDS_P2;PMS_P1;PMS_P2;Temp;Humidity;BMP_temperature;BMP_pressure;BME280_temperature;BME280_humidity;BME280_pressure;Samples;Min_cycle;Max_cycle;Signal;HPM_P1;HPM_P2
2022/06/10 00:00:55;;;;;;;0.00;0.00;;;12.90;99.90;;;;;;5073582;28;20439;-80
2022/06/10 00:03:25;;;;;;;0.00;0.00;;;12.80;99.90;;;;;;5073247;28;20493;-80
2022/06/10 00:05:58;;;;;;;0.00;0.00;;;12.80;99.90;;;;;;5072949;28;20419;-80
2022/06/10 00:08:29;;;;;;;0.00;0.00;;;12.80;99.90;;;;;;5056487;28;20063;-80
2022/06/10 00:10:56;;;;;;;0.00;0.00;;;12.90;99.90;;;;;;5074256;28;20473;-80
2022/06/10 00:13:25;;;;;;;0.10;0.05;;;12.80;99.90;;;;;;5074050;28;20052;-80
2022/06/10 00:15:53;;;;;;;0.00;0.00;;;12.70;99.90;;;;;;5073843;28;20052;-80
2022/06/10 00:18:19;;;;;;;0.00;0.00;;;12.70;99.90;;;;;;5056802;28;20049;-80
2022/06/10 00:20:45;;;;;;;0.00;0.00;;;12.60;99.90;;;;;;5057054;28;20056;-80
2022/06/10 00:23:12;;;;;;;0.00;0.00;;;12.60;99.90;;;;;;5057121;28;20048;-81
2022/06/10 00:25:38;;;;;;;0.00;0.00;;;12.60;99.90;;;;;;5074263;28;20075;-81
2022/06/10 00:28:05;;;;;;;0.00;0.00;;;12.60;99.90;;;;;;5073761;28;20135;-80
2022/06/10 00:30:31;;;;;;;0.00;0.00;;;12.50;99.90;;;;;;5073451;28;20040;-80
2022/06/10 00:32:58;;;;;;;0.00;0.00;;;12.50;99.90;;;;;;5056925;28;20048;-81
2022/06/10 00:35:25;;;;;;;0.00;0.00;;;12.40;99.90;;;;;;5056662;28;20044;-80
2022/06/10 00:37:50;;;;;;;0.00;0.00;;;12.40;99.90;;;;;;5056941;28;20087;-80
2022/06/10 00:40:20;;;;;;;0.00;0.00;;;12.40;99.90;;;;;;5073770;28;20045;-81
2022/06/10 00:42:46;;;;;;;0.00;0.00;;;12.40;99.90;;;;;;5057170;28;20044;-80
2022/06/10 00:45:49;;;;;;;0.00;0.00;;;12.40;99.90;;;;;;5073645;28;20472;-80
2022/06/10 00:48:21;;;;;;;0.00;0.00;;;12.30;99.90;;;;;;5056693;28;20048;-81
2022/06/10 00:50:48;;;;;;;0.00;0.00;;;12.30;99.90;;;;;;5073233;28;20047;-80
2022/06/10 00:53:17;;;;;;;0.00;0.00;;;12.30;99.90;;;;;;5073098;28;20089;-81
2022/06/10 00:55:45;;;;;;;0.00;0.00;;;12.40;99.90;;;;;;5056767;28;20053;-80
2022/06/10 00:58:36;;;;;;;0.00;0.00;;;12.30;99.90;;;;;;5056455;28;20044;-80
2022/06/10 01:01:03;;;;;;;0.00;0.00;;;12.30;99.90;;;;;;5056490;28;20053;-81
2022/06/10 01:03:30;;;;;;;0.00;0.00;;;12.40;99.90;;;;;;5073503;28;20078;-82
2022/06/10 01:05:56;;;;;;;0.00;0.00;;;12.40;99.90;;;;;;5072659;28;20061;-81
2022/06/10 01:08:23;;;;;;;0.45;0.30;;;12.40;99.90;;;;;;5055916;28;20447;-81
2022/06/10 01:11:00;;;;;;;0.00;0.00;;;12.40;99.90;;;;;;5072763;28;20076;-81
2022/06/10 01:13:35;;;;;;;0.00;0.00;;;12.40;99.90;;;;;;5073318;28;20098;-81
2022/06/10 01:16:08;;;;;;;0.00;0.00;;;12.50;99.90;;;;;;5073488;28;20468;-81
2022/06/10 01:18:39;;;;;;;0.00;0.00;;;12.50;99.90;;;;;;5056220;28;20511;-81
2022/06/10 01:21:18;;;;;;;0.00;0.00;;;12.60;99.90;;;;;;5056295;28;20048;-81
2022/06/10 01:24:29;;;;;;;0.00;0.00;;;12.60;99.90;;;;;;5056705;28;20053;-81
2022/06/10 01:27:48;;;;;;;0.00;0.00;;;12.60;99.90;;;;;;5035210;28;20052;-81
2022/06/10 01:30:16;;;;;;;0.00;0.00;;;12.60;99.90;;;;;;5034428;28;20418;-81
2022/06/10 01:33:03;;;;;;;0.00;0.00;;;12.60;99.90;;;;;;5035202;28;20125;-81
2022/06/10 01:35:43;;;;;;;0.00;0.00;;;12.60;99.90;;;;;;5035226;28;20093;-81
2022/06/10 01:38:30;;;;;;;0.00;0.00;;;12.60;99.90;;;;;;5035431;28;20103;-81
2022/06/10 01:41:05;;;;;;;0.00;0.00;;;12.60;99.90;;;;;;5018031;28;20053;-81
2022/06/10 01:44:09;;;;;;;0.30;0.15;;;12.60;99.90;;;;;;5035245;28;20060;-81
2022/06/10 01:46:39;;;;;;;0.00;0.00;;;12.70;99.90;;;;;;5034881;28;20580;-81
2022/06/10 01:49:26;;;;;;;0.00;0.00;;;12.70;99.90;;;;;;5035344;28;20146;-81
2022/06/10 01:52:44;;;;;;;0.00;0.00;;;12.70;99.90;;;;;;5035408;28;20092;-81
2022/06/10 01:55:16;;;;;;;0.00;0.00;;;12.70;99.90;;;;;;4965807;28;20410;-81
2022/06/10 01:57:56;;;;;;;0.55;0.30;;;12.70;99.90;;;;;;4976067;28;20062;-81
2022/06/10 02:00:30;;;;;;;0.20;0.10;;;12.70;99.90;;;;;;4976268;28;20050;-81
2022/06/10 02:03:21;;;;;;;0.00;0.00;;;12.70;99.90;;;;;;4982532;28;20064;-81
2022/06/10 02:05:53;;;;;;;0.00;0.00;;;12.60;99.90;;;;;;4998474;28;20057;-81
2022/06/10 02:08:53;;;;;;;0.00;0.00;;;12.60;99.90;;;;;;4999012;28;20417;-81
2022/06/10 02:11:22;;;;;;;0.00;0.00;;;12.60;99.90;;;;;;4957198;28;20535;-81
2022/06/10 02:14:28;;;;;;;0.35;0.30;;;12.60;99.90;;;;;;4972902;28;20093;-81
2022/06/10 02:16:57;;;;;;;0.00;0.00;;;12.50;99.90;;;;;;4899798;29;20111;-81
2022/06/10 02:19:35;;;;;;;0.00;0.00;;;12.60;99.90;;;;;;4899530;29;20052;-81
2022/06/10 02:22:26;;;;;;;0.00;0.00;;;12.50;99.90;;;;;;4915432;29;20154;-81
2022/06/10 02:25:07;;;;;;;0.00;0.00;;;12.40;99.90;;;;;;4899078;29;20111;-81
2022/06/10 02:27:37;;;;;;;0.00;0.00;;;12.50;99.90;;;;;;4899750;29;20660;-81
2022/06/10 02:30:23;;;;;;;0.00;0.00;;;12.40;99.90;;;;;;4901426;29;20074;-81
2022/06/10 02:32:49;;;;;;;0.00;0.00;;;12.40;99.90;;;;;;4922102;29;20083;-81
2022/06/10 02:35:16;;;;;;;0.00;0.00;;;12.30;99.90;;;;;;4921180;29;20154;-81
2022/06/10 02:37:56;;;;;;;0.00;0.00;;;12.30;99.90;;;;;;4937388;29;20061;-81
2022/06/10 02:40:30;;;;;;;0.00;0.00;;;12.20;99.90;;;;;;4922846;29;20082;-81
2022/06/10 02:43:17;;;;;;;0.00;0.00;;;12.20;99.90;;;;;;4925525;29;20069;-81
2022/06/10 02:45:58;;;;;;;0.13;0.13;;;12.20;99.90;;;;;;4941624;28;20102;-81
2022/06/10 02:48:34;;;;;;;0.00;0.00;;;12.10;99.90;;;;;;4982227;28;20119;-81
2022/06/10 02:51:00;;;;;;;0.00;0.00;;;12.10;99.90;;;;;;5043364;28;20056;-81
2022/06/10 02:53:27;;;;;;;0.43;0.40;;;12.10;99.90;;;;;;5075018;28;20166;-81
2022/06/10 02:55:53;;;;;;;0.00;0.00;;;12.20;99.90;;;;;;5075621;28;20488;-81
2022/06/10 03:01:31;;;;;;;0.00;0.00;;;12.20;99.90;;;;;;5075408;28;20059;-81
2022/06/10 03:04:13;;;;;;;0.00;0.00;;;12.10;99.90;;;;;;5075349;28;20059;-81
2022/06/10 03:06:41;;;;;;;0.15;0.15;;;12.20;99.90;;;;;;5058435;28;20055;-81
2022/06/10 03:09:33;;;;;;;0.70;0.25;;;12.10;99.90;;;;;;5075157;28;20048;-81
2022/06/10 03:12:13;;;;;;;0.00;0.00;;;12.10;99.90;;;;;;5075129;28;20484;-81
2022/06/10 03:14:48;;;;;;;0.75;0.28;;;12.00;99.90;;;;;;5058477;28;20496;-81
2022/06/10 03:17:51;;;;;;;0.00;0.00;;;12.10;99.90;;;;;;5074742;28;20408;-81
2022/06/10 03:20:20;;;;;;;0.00;0.00;;;12.00;99.90;;;;;;5075669;28;20135;-81
2022/06/10 03:22:52;;;;;;;0.10;0.00;;;12.00;99.90;;;;;;5074904;28;20538;-81
2022/06/10 03:25:27;;;;;;;0.43;0.43;;;12.00;99.90;;;;;;5074991;28;20135;-81
2022/06/10 03:28:12;;;;;;;0.00;0.00;;;12.00;99.90;;;;;;5074348;28;20057;-80
2022/06/10 03:31:19;;;;;;;0.00;0.00;;;11.90;99.90;;;;;;5058296;28;20551;-81
2022/06/10 03:33:54;;;;;;;0.00;0.00;;;11.90;99.90;;;;;;5019916;28;20057;-81
2022/06/10 03:36:23;;;;;;;0.05;0.05;;;11.90;99.90;;;;;;5020348;28;20061;-81
2022/06/10 03:38:51;;;;;;;1.17;0.25;;;11.90;99.90;;;;;;5036994;28;20096;-81
2022/06/10 03:41:22;;;;;;;0.00;0.00;;;11.90;99.90;;;;;;5037673;28;20444;-82
2022/06/10 03:43:50;;;;;;;0.00;0.00;;;11.80;99.90;;;;;;5036973;28;20076;-82
2022/06/10 03:46:18;;;;;;;0.00;0.00;;;11.90;99.90;;;;;;5019434;28;20057;-82
2022/06/10 03:48:45;;;;;;;1.00;0.43;;;11.90;99.90;;;;;;5035943;28;20135;-81
2022/06/10 03:51:13;;;;;;;0.00;0.00;;;11.90;99.90;;;;;;5033715;28;20087;-81
2022/06/10 03:53:39;;;;;;;0.00;0.00;;;12.00;99.90;;;;;;5035367;28;20049;-82
2022/06/10 03:56:05;;;;;;;0.60;0.30;;;11.90;99.90;;;;;;5036968;28;20459;-82
2022/06/10 03:58:31;;;;;;;0.00;0.00;;;11.90;99.90;;;;;;5036942;28;20080;-82
2022/06/10 04:00:58;;;;;;;0.00;0.00;;;12.00;99.90;;;;;;5036418;28;20080;-82
2022/06/10 04:03:24;;;;;;;0.00;0.00;;;12.00;99.90;;;;;;5020931;28;20095;-82
2022/06/10 04:05:50;;;;;;;0.00;0.00;;;12.00;99.90;;;;;;5056783;28;20052;-82
2022/06/10 04:08:15;;;;;;;0.00;0.00;;;12.00;99.90;;;;;;5057016;28;20077;-82
2022/06/10 04:10:41;;;;;;;0.10;0.05;;;12.10;99.90;;;;;;5072920;28;20037;-82
2022/06/10 04:13:07;;;;;;;0.00;0.00;;;12.10;99.90;;;;;;5057288;28;20392;-82
2022/06/10 04:15:34;;;;;;;0.00;0.00;;;12.10;99.90;;;;;;5073981;28;20044;-82
2022/06/10 04:18:00;;;;;;;0.00;0.00;;;12.20;99.90;;;;;;5073301;28;20055;-82
2022/06/10 04:20:30;;;;;;;0.00;0.00;;;12.20;99.90;;;;;;5073574;28;20063;-82
2022/06/10 04:22:56;;;;;;;0.00;0.00;;;12.20;99.90;;;;;;5073845;28;20412;-82
2022/06/10 04:25:22;;;;;;;0.00;0.00;;;12.30;99.90;;;;;;5057325;28;20572;-82
2022/06/10 04:27:49;;;;;;;0.00;0.00;;;12.30;99.90;;;;;;5073777;28;20397;-82
2022/06/10 04:30:22;;;;;;;5.10;1.02;;;12.30;99.90;;;;;;5056767;28;20041;-82
2022/06/10 04:32:48;;;;;;;0.00;0.00;;;12.20;99.90;;;;;;5073338;28;20484;-82
2022/06/10 04:35:14;;;;;;;0.15;0.00;;;12.40;99.90;;;;;;5057099;28;20056;-82
2022/06/10 04:37:39;;;;;;;0.00;0.00;;;12.40;99.90;;;;;;5074055;28;20113;-82
2022/06/10 04:40:06;;;;;;;0.00;0.00;;;12.40;99.90;;;;;;5057150;28;20051;-82
2022/06/10 04:42:32;;;;;;;0.17;0.00;;;12.40;99.90;;;;;;5056764;28;20048;-82
2022/06/10 04:44:58;;;;;;;0.03;0.00;;;12.50;99.90;;;;;;5056588;28;20416;-82
2022/06/10 04:47:24;;;;;;;0.10;0.05;;;12.50;99.90;;;;;;5073323;28;20052;-82
2022/06/10 04:49:50;;;;;;;0.00;0.00;;;12.50;99.90;;;;;;5073230;28;20062;-81
2022/06/10 04:52:15;;;;;;;0.00;0.00;;;12.60;99.90;;;;;;5056333;28;20064;-82
2022/06/10 04:54:41;;;;;;;0.20;0.10;;;12.70;99.90;;;;;;5071720;28;20108;-82
2022/06/10 04:57:07;;;;;;;0.00;0.00;;;12.70;99.90;;;;;;5070715;28;20052;-82
2022/06/10 04:59:33;;;;;;;0.00;0.00;;;12.80;99.90;;;;;;5054850;28;20538;-82
2022/06/10 05:01:58;;;;;;;0.00;0.00;;;12.80;99.90;;;;;;5071187;28;20056;-82
2022/06/10 05:04:24;;;;;;;0.00;0.00;;;12.90;99.90;;;;;;5055206;28;20047;-82
2022/06/10 05:06:50;;;;;;;0.00;0.00;;;13.00;99.90;;;;;;5054562;28;20056;-81
2022/06/10 05:09:15;;;;;;;0.10;0.00;;;13.10;99.90;;;;;;5055769;28;20408;-81
2022/06/10 05:11:42;;;;;;;0.00;0.00;;;13.20;99.90;;;;;;5072728;28;20129;-81
2022/06/10 05:14:10;;;;;;;0.00;0.00;;;13.30;99.90;;;;;;5072895;28;20067;-81
2022/06/10 05:16:36;;;;;;;0.15;0.10;;;13.40;99.90;;;;;;5055317;28;20043;-81
2022/06/10 05:19:04;;;;;;;0.65;0.50;;;13.50;99.90;;;;;;5054801;28;20041;-81
2022/06/10 05:21:30;;;;;;;0.30;0.00;;;13.70;99.90;;;;;;5072952;28;20054;-81
2022/06/10 05:23:56;;;;;;;1.75;0.38;;;13.80;99.90;;;;;;5056278;28;20048;-81
2022/06/10 05:26:21;;;;;;;0.57;0.57;;;14.00;99.90;;;;;;5072971;28;20052;-81
2022/06/10 05:28:50;;;;;;;0.00;0.00;;;14.20;99.90;;;;;;5073091;28;20044;-81
2022/06/10 05:31:15;;;;;;;0.00;0.00;;;14.40;99.90;;;;;;5073091;28;20124;-81
2022/06/10 05:36:25;;;;;;;0.00;0.00;;;14.60;99.90;;;;;;5073187;28;20049;-81
2022/06/10 05:38:51;;;;;;;0.63;0.40;;;14.70;99.90;;;;;;5073209;28;20054;-81
2022/06/10 05:44:01;;;;;;;0.65;0.47;;;14.70;99.90;;;;;;5073683;28;20075;-81
2022/06/10 05:46:26;;;;;;;0.00;0.00;;;14.70;99.90;;;;;;5056256;28;20484;-81
2022/06/10 05:48:52;;;;;;;0.03;0.03;;;14.70;99.90;;;;;;5073030;28;20048;-81
2022/06/10 05:51:18;;;;;;;0.35;0.35;;;14.70;99.90;;;;;;5072787;28;20446;-81
2022/06/10 05:53:44;;;;;;;0.00;0.00;;;14.60;99.90;;;;;;5072761;28;20439;-81
2022/06/10 05:56:10;;;;;;;5.30;0.75;;;14.60;99.90;;;;;;5072279;28;20040;-81
2022/06/10 05:58:35;;;;;;;0.00;0.00;;;14.60;99.90;;;;;;5072683;28;20040;-81
2022/06/10 06:01:01;;;;;;;0.17;0.17;;;14.60;99.90;;;;;;5072704;28;20048;-82
2022/06/10 06:03:27;;;;;;;0.38;0.20;;;14.60;99.90;;;;;;5072716;28;20056;-81
2022/06/10 06:05:52;;;;;;;0.30;0.15;;;14.70;99.90;;;;;;5055790;28;20472;-81
2022/06/10 06:08:18;;;;;;;0.15;0.15;;;14.70;99.90;;;;;;5055665;28;20052;-81
2022/06/10 06:10:44;;;;;;;0.70;0.50;;;14.70;99.90;;;;;;5055455;28;20127;-81
2022/06/10 06:13:10;;;;;;;0.00;0.00;;;14.80;99.90;;;;;;5056028;28;20040;-81
2022/06/10 06:15:37;;;;;;;1.35;0.32;;;14.80;99.90;;;;;;5073871;28;20036;-81
2022/06/10 06:18:03;;;;;;;0.00;0.00;;;14.80;99.90;;;;;;5076073;28;20052;-81
2022/06/10 06:20:29;;;;;;;0.00;0.00;;;14.80;99.90;;;;;;5059653;28;20098;-81
2022/06/10 06:22:55;;;;;;;0.00;0.00;;;14.90;99.90;;;;;;5059510;28;20388;-80
2022/06/10 06:25:20;;;;;;;0.00;0.00;;;15.00;99.90;;;;;;5075975;28;20051;-80
2022/06/10 06:27:48;;;;;;;0.00;0.00;;;15.00;99.90;;;;;;5076072;28;20135;-80
2022/06/10 06:30:37;;;;;;;0.00;0.00;;;15.10;99.90;;;;;;5059439;28;20036;-80
2022/06/10 06:33:05;;;;;;;0.00;0.00;;;15.10;99.90;;;;;;5059406;28;20052;-80
2022/06/10 06:35:33;;;;;;;0.20;0.17;;;15.10;99.90;;;;;;5059026;28;20087;-80
2022/06/10 06:37:59;;;;;;;0.00;0.00;;;15.00;99.90;;;;;;5076287;28;20041;-80
2022/06/10 06:40:25;;;;;;;1.17;0.55;;;15.10;99.90;;;;;;5075879;28;20087;-80
2022/06/10 06:42:51;;;;;;;0.00;0.00;;;15.20;99.90;;;;;;5075845;28;20056;-80
2022/06/10 06:45:18;;;;;;;0.00;0.00;;;15.30;99.90;;;;;;5059094;28;20405;-80
2022/06/10 06:47:45;;;;;;;0.00;0.00;;;15.30;99.90;;;;;;5058999;28;20036;-80
2022/06/10 06:50:14;;;;;;;0.00;0.00;;;15.40;99.90;;;;;;5058421;28;20412;-80
2022/06/10 06:52:40;;;;;;;0.25;0.25;;;15.40;99.90;;;;;;5059528;28;20071;-80
2022/06/10 06:55:07;;;;;;;0.00;0.00;;;15.30;99.90;;;;;;5075478;28;20052;-80
2022/06/10 06:57:32;;;;;;;0.30;0.22;;;15.30;99.90;;;;;;5059087;28;20044;-81
2022/06/10 07:00:04;;;;;;;0.00;0.00;;;15.20;99.90;;;;;;5058830;28;20055;-81
2022/06/10 07:02:30;;;;;;;0.00;0.00;;;15.20;99.90;;;;;;5075120;28;20377;-81
2022/06/10 07:04:56;;;;;;;0.00;0.00;;;15.20;99.90;;;;;;5074901;28;20055;-80
2022/06/10 07:07:21;;;;;;;4.03;0.45;;;15.20;99.90;;;;;;5075318;28;20056;-80
2022/06/10 07:09:47;;;;;;;0.00;0.00;;;15.20;99.90;;;;;;5074883;28;20040;-80
2022/06/10 07:12:13;;;;;;;0.00;0.00;;;15.20;99.90;;;;;;5075103;28;20049;-81
2022/06/10 07:14:38;;;;;;;0.32;0.32;;;15.30;99.90;;;;;;5058225;28;20060;-80
2022/06/10 07:17:05;;;;;;;0.00;0.00;;;15.40;99.90;;;;;;5074703;28;20076;-80
2022/06/10 07:19:31;;;;;;;0.10;0.10;;;15.50;99.90;;;;;;5058167;28;20055;-81
2022/06/10 07:21:56;;;;;;;0.35;0.35;;;15.60;99.90;;;;;;5075128;28;20131;-80
2022/06/10 07:24:22;;;;;;;0.00;0.00;;;15.70;99.90;;;;;;5058335;28;20194;-80
2022/06/10 07:26:48;;;;;;;0.20;0.20;;;15.60;99.90;;;;;;5073935;28;20051;-80
2022/06/10 07:29:14;;;;;;;0.70;0.28;;;15.70;99.90;;;;;;5074773;28;20047;-80
2022/06/10 07:31:41;;;;;;;0.25;0.15;;;15.80;99.90;;;;;;5074894;28;20056;-80
2022/06/10 07:34:08;;;;;;;0.00;0.00;;;16.00;99.90;;;;;;5058036;28;20139;-81
2022/06/10 07:36:34;;;;;;;0.00;0.00;;;16.10;99.90;;;;;;5074545;28;20055;-80
2022/06/10 07:39:00;;;;;;;1.17;0.52;;;16.20;99.90;;;;;;5057833;28;20064;-80
2022/06/10 07:44:10;;;;;;;3.33;0.10;;;16.40;99.90;;;;;;5074854;28;20404;-80
2022/06/10 07:46:36;;;;;;;0.03;0.03;;;16.50;99.90;;;;;;5057861;28;20052;-81
2022/06/10 07:49:01;;;;;;;0.05;0.05;;;16.70;99.90;;;;;;5074536;28;20393;-81
2022/06/10 07:51:27;;;;;;;0.20;0.20;;;16.80;99.90;;;;;;5074979;28;20484;-80
2022/06/10 07:53:53;;;;;;;0.00;0.00;;;16.80;99.90;;;;;;5074156;28;20048;-80
2022/06/10 07:56:22;;;;;;;0.00;0.00;;;16.90;99.90;;;;;;5074567;28;20128;-80
2022/06/10 07:58:49;;;;;;;0.00;0.00;;;17.10;99.90;;;;;;5057535;28;20091;-80
2022/06/10 08:01:15;;;;;;;0.00;0.00;;;17.10;99.90;;;;;;5074270;28;20092;-80
2022/06/10 08:03:41;;;;;;;0.22;0.22;;;17.20;99.90;;;;;;5057541;28;20044;-80
2022/06/10 08:06:07;;;;;;;0.00;0.00;;;17.20;99.90;;;;;;5073778;28;20105;-80
2022/06/10 08:08:33;;;;;;;1.05;0.30;;;17.20;99.90;;;;;;5057594;28;20048;-80
2022/06/10 08:10:59;;;;;;;2.17;0.25;;;17.20;99.90;;;;;;5073775;28;20548;-81
2022/06/10 08:13:26;;;;;;;0.00;0.00;;;17.10;99.90;;;;;;5073879;28;20133;-80
2022/06/10 08:15:51;;;;;;;0.45;0.45;;;17.10;99.90;;;;;;5073938;28;20048;-80
2022/06/10 08:18:20;;;;;;;0.00;0.00;;;17.10;99.90;;;;;;5073928;28;20037;-80
2022/06/10 08:23:32;;;;;;;0.00;0.00;;;17.00;99.90;;;;;;5074118;28;20088;-80
2022/06/10 08:26:00;;;;;;;0.00;0.00;;;17.00;99.90;;;;;;5073735;28;20044;-80
2022/06/10 08:28:26;;;;;;;0.00;0.00;;;17.10;99.90;;;;;;5073511;28;20048;-80
2022/06/10 08:30:53;;;;;;;0.20;0.10;;;17.10;99.90;;;;;;5073607;28;20047;-80
2022/06/10 08:33:18;;;;;;;7.22;0.43;;;17.20;99.90;;;;;;5056982;28;20404;-80
2022/06/10 08:35:46;;;;;;;0.08;0.03;;;17.20;99.90;;;;;;5073606;28;20044;-80
2022/06/10 08:38:14;;;;;;;0.00;0.00;;;17.30;99.90;;;;;;5073109;28;20056;-80
2022/06/10 08:40:46;;;;;;;0.13;0.10;;;17.30;99.90;;;;;;5073157;28;20500;-80
2022/06/10 08:43:31;;;;;;;0.00;0.00;;;17.40;99.90;;;;;;5074091;28;20052;-81
2022/06/10 08:46:28;;;;;;;0.10;0.00;;;17.50;99.90;;;;;;5056970;28;20060;-80
2022/06/10 08:49:09;;;;;;;0.13;0.10;;;17.60;99.90;;;;;;5056494;28;20109;-80
2022/06/10 08:51:46;;;;;;;0.00;0.00;;;17.70;99.90;;;;;;5073887;28;20401;-80
2022/06/10 08:54:20;;;;;;;0.10;0.10;;;17.80;99.90;;;;;;5073358;28;20055;-80
2022/06/10 08:56:50;;;;;;;0.00;0.00;;;17.90;99.90;;;;;;5073206;28;20097;-80
2022/06/10 08:59:36;;;;;;;8.25;1.15;;;17.90;99.90;;;;;;5056505;28;20044;-80
2022/06/10 09:02:18;;;;;;;0.00;0.00;;;17.90;99.90;;;;;;5056658;28;20106;-80
2022/06/10 09:05:08;;;;;;;0.08;0.03;;;17.90;99.90;;;;;;5073214;28;20097;-80
2022/06/10 09:07:43;;;;;;;0.00;0.00;;;17.90;99.90;;;;;;5072913;28;20052;-80
2022/06/10 09:10:23;;;;;;;0.45;0.45;;;17.90;99.90;;;;;;5056121;28;20186;-80
2022/06/10 09:13:07;;;;;;;0.22;0.00;;;17.90;99.90;;;;;;5073177;28;20493;-80
2022/06/10 09:15:40;;;;;;;0.00;0.00;;;18.00;99.90;;;;;;5073334;28;20396;-80
2022/06/10 09:18:20;;;;;;;0.00;0.00;;;18.00;99.90;;;;;;5073023;28;20142;-81
2022/06/10 09:20:58;;;;;;;0.00;0.00;;;18.00;99.90;;;;;;5056487;28;20048;-80
2022/06/10 09:23:43;;;;;;;0.00;0.00;;;18.00;99.90;;;;;;5073313;28;20103;-81
2022/06/10 09:26:22;;;;;;;0.00;0.00;;;18.00;99.90;;;;;;5072936;28;20085;-80
2022/06/10 09:28:49;;;;;;;0.00;0.00;;;18.00;99.90;;;;;;5072836;28;20094;-80
2022/06/10 09:31:27;;;;;;;0.43;0.22;;;18.00;99.90;;;;;;5072769;28;20052;-81
2022/06/10 09:34:39;;;;;;;0.00;0.00;;;18.00;99.90;;;;;;5056673;28;20388;-81
2022/06/10 09:37:14;;;;;;;0.08;0.00;;;18.00;99.90;;;;;;5072226;28;20488;-81
2022/06/10 09:42:45;;;;;;;0.00;0.00;;;17.90;99.90;;;;;;5072862;28;20052;-81
2022/06/10 09:45:22;;;;;;;0.10;0.00;;;17.90;99.90;;;;;;5056263;28;20113;-81
2022/06/10 09:48:22;;;;;;;0.10;0.00;;;17.90;99.90;;;;;;5056285;28;20040;-81
2022/06/10 09:50:54;;;;;;;0.00;0.00;;;17.90;99.90;;;;;;5057789;28;20044;-81
2022/06/10 09:53:27;;;;;;;0.00;0.00;;;18.00;99.90;;;;;;5076795;28;20051;-81
2022/06/10 09:55:59;;;;;;;0.00;0.00;;;18.10;99.90;;;;;;5076452;28;20488;-81
2022/06/10 09:58:50;;;;;;;0.00;0.00;;;18.20;99.90;;;;;;5059975;28;20048;-80
2022/06/10 10:01:31;;;;;;;0.10;0.10;;;18.30;99.90;;;;;;5076474;28;20051;-81
2022/06/10 10:04:10;;;;;;;0.00;0.00;;;18.40;99.90;;;;;;5059400;28;20527;-81
2022/06/10 10:06:46;;;;;;;0.00;0.00;;;18.50;99.90;;;;;;5059330;28;20052;-81
2022/06/10 10:09:25;;;;;;;30.88;1.23;;;18.60;99.90;;;;;;5076611;28;20159;-81
2022/06/10 10:11:53;;;;;;;0.00;0.00;;;18.80;99.90;;;;;;5059880;28;20056;-81
2022/06/10 10:14:33;;;;;;;0.00;0.00;;;19.00;99.90;;;;;;5076310;28;20396;-81
2022/06/10 10:17:23;;;;;;;0.00;0.00;;;19.20;99.90;;;;;;5060133;28;20518;-81
2022/06/10 10:20:12;;;;;;;0.00;0.00;;;19.30;99.90;;;;;;5076943;28;20049;-81
2022/06/10 10:23:14;;;;;;;0.00;0.00;;;19.60;99.90;;;;;;5076222;28;20065;-80
2022/06/10 10:25:42;;;;;;;0.03;0.03;;;19.80;99.90;;;;;;5059331;28;20063;-81
2022/06/10 10:28:24;;;;;;;0.05;0.05;;;19.90;99.90;;;;;;5076142;28;20392;-81
2022/06/10 10:31:19;;;;;;;0.00;0.00;;;20.10;99.90;;;;;;5059036;28;20043;-81
2022/06/10 10:33:45;;;;;;;;;;;20.40;99.90;;;;;;5051674;28;20496;-80
2022/06/10 10:36:27;;;;;;;0.00;0.00;;;20.70;99.90;;;;;;5075900;28;19931;-81
2022/06/10 10:38:54;;;;;;;0.52;0.22;;;20.90;99.90;;;;;;5059375;28;20438;-80
2022/06/10 10:41:28;;;;;;;0.00;0.00;;;21.10;99.90;;;;;;5059268;28;20057;-81
2022/06/10 10:44:01;;;;;;;0.00;0.00;;;21.20;99.90;;;;;;5059342;28;20040;-81
2022/06/10 10:46:40;;;;;;;0.30;0.10;;;21.30;99.90;;;;;;5075681;28;20052;-81
2022/06/10 10:49:28;;;;;;;0.00;0.00;;;21.30;99.90;;;;;;5075400;28;20045;-81
2022/06/10 10:51:56;;;;;;;0.00;0.00;;;21.30;99.90;;;;;;5058796;28;20040;-81
2022/06/10 10:54:35;;;;;;;0.00;0.00;;;21.60;99.90;;;;;;5075406;28;20523;-81
2022/06/10 10:57:12;;;;;;;0.00;0.00;;;21.70;99.90;;;;;;5058842;28;20466;-81
2022/06/10 10:59:42;;;;;;;0.52;0.25;;;21.70;99.90;;;;;;5058880;28;20045;-81
2022/06/10 11:02:26;;;;;;;0.52;0.00;;;21.60;99.90;;;;;;5075130;28;20059;-81
2022/06/10 11:04:51;;;;;;;0.10;0.10;;;21.50;99.90;;;;;;5075348;28;20099;-80
2022/06/10 11:07:21;;;;;;;0.10;0.10;;;21.60;99.90;;;;;;5074791;28;20088;-81
2022/06/10 11:09:51;;;;;;;0.00;0.00;;;21.70;99.90;;;;;;5075051;28;20156;-81
2022/06/10 11:12:26;;;;;;;0.47;0.47;;;21.80;99.90;;;;;;5075089;28;20044;-81
2022/06/10 11:15:11;;;;;;;0.20;0.20;;;21.90;99.90;;;;;;5058308;28;20487;-81
2022/06/10 11:17:37;;;;;;;0.00;0.00;;;21.90;99.90;;;;;;5058304;28;20055;-81
2022/06/10 11:20:15;;;;;;;0.00;0.00;;;22.10;99.90;;;;;;5074843;28;20040;-81
2022/06/10 11:22:44;;;;;;;0.00;0.00;;;22.10;99.90;;;;;;5058078;28;20166;-81
2022/06/10 11:25:14;;;;;;;0.00;0.00;;;22.10;99.90;;;;;;5074967;28;20048;-81
2022/06/10 11:28:03;;;;;;;0.00;0.00;;;22.10;99.90;;;;;;5058460;28;20051;-82
2022/06/10 11:30:36;;;;;;;0.22;0.10;;;22.30;99.90;;;;;;5074957;28;20043;-81
2022/06/10 11:33:05;;;;;;;0.10;0.10;;;22.40;99.90;;;;;;5057689;28;20056;-81
2022/06/10 11:35:34;;;;;;;0.00;0.00;;;22.40;99.90;;;;;;5074832;28;20105;-81
2022/06/10 11:38:23;;;;;;;0.00;0.00;;;22.30;99.90;;;;;;5074545;28;20047;-81
2022/06/10 11:40:51;;;;;;;0.10;0.05;;;22.30;99.90;;;;;;5058065;28;20086;-81
2022/06/10 11:43:31;;;;;;;1.08;0.20;;;22.50;99.90;;;;;;5074574;28;20087;-81
2022/06/10 11:46:04;;;;;;;0.00;0.00;;;22.50;99.90;;;;;;5057819;28;20055;-81
2022/06/10 11:48:45;;;;;;;2.10;0.17;;;22.70;99.90;;;;;;5057781;28;20373;-81
2022/06/10 11:51:23;;;;;;;0.30;0.20;;;22.80;99.90;;;;;;5074347;28;20480;-81
2022/06/10 11:54:26;;;;;;;0.00;0.00;;;22.60;99.90;;;;;;5058035;28;20056;-81
2022/06/10 11:59:55;;;;;;;0.00;0.00;;;22.60;99.90;;;;;;5074704;28;20058;-81
2022/06/10 12:02:31;;;;;;;0.30;0.30;;;22.50;99.90;;;;;;5057626;28;20056;-81
2022/06/10 12:05:20;;;;;;;0.00;0.00;;;22.40;99.90;;;;;;5074087;28;20135;-81
2022/06/10 12:07:57;;;;;;;0.00;0.00;;;22.30;99.90;;;;;;5074063;28;20131;-81
2022/06/10 12:10:26;;;;;;;0.00;0.00;;;22.10;99.90;;;;;;5074152;28;20045;-81
2022/06/10 12:12:55;;;;;;;0.10;0.10;;;22.00;99.90;;;;;;5073391;28;20048;-81
2022/06/10 12:15:25;;;;;;;0.32;0.30;;;21.90;99.90;;;;;;5057199;28;20051;-81
2022/06/10 12:18:00;;;;;;;0.55;0.38;;;21.70;99.90;;;;;;5073743;28;20052;-81
2022/06/10 12:20:41;;;;;;;0.00;0.00;;;21.60;99.90;;;;;;5057736;28;20067;-81
2022/06/10 12:23:26;;;;;;;0.03;0.00;;;21.70;99.90;;;;;;5057202;28;20056;-81
2022/06/10 12:26:30;;;;;;;0.10;0.00;;;21.80;99.90;;;;;;5056974;28;20056;-81
2022/06/10 12:29:04;;;;;;;0.20;0.13;;;21.80;99.90;;;;;;5016294;28;20064;-81
2022/06/10 12:31:47;;;;;;;0.10;0.03;;;21.80;99.90;;;;;;4999592;28;20054;-81
2022/06/10 12:34:42;;;;;;;0.08;0.00;;;21.80;99.90;;;;;;5016231;28;20291;-81
2022/06/10 12:37:20;;;;;;;0.10;0.00;;;21.80;99.90;;;;;;5016336;28;20179;-81
2022/06/10 12:39:57;;;;;;;0.00;0.00;;;21.70;99.90;;;;;;5015916;28;20054;-82
2022/06/10 12:42:28;;;;;;;1.13;0.57;;;21.60;99.90;;;;;;5016159;28;20092;-81
2022/06/10 12:44:58;;;;;;;0.00;0.00;;;21.50;99.90;;;;;;5015967;28;20048;-81
2022/06/10 12:47:32;;;;;;;1.73;0.55;;;21.40;99.90;;;;;;5016029;28;20058;-81
2022/06/10 12:50:01;;;;;;;0.28;0.28;;;21.40;99.90;;;;;;5016161;28;20045;-81
2022/06/10 12:52:51;;;;;;;0.00;0.00;;;21.50;99.90;;;;;;5015908;28;20053;-81
2022/06/10 12:55:33;;;;;;;0.00;0.00;;;21.40;99.90;;;;;;5015715;28;20045;-81
2022/06/10 12:57:59;;;;;;;0.00;0.00;;;21.40;99.90;;;;;;5015724;28;20517;-80
2022/06/10 13:00:36;;;;;;;0.00;0.00;;;21.50;99.90;;;;;;5061265;28;20059;-81
2022/06/10 13:03:14;;;;;;;0.08;0.03;;;21.60;99.90;;;;;;5073026;28;20044;-81
2022/06/10 13:05:41;;;;;;;0.00;0.00;;;21.70;99.90;;;;;;5056068;28;20058;-82
2022/06/10 13:08:33;;;;;;;0.17;0.00;;;21.80;99.90;;;;;;5056211;28;20052;-81
2022/06/10 13:10:59;;;;;;;1.02;0.40;;;21.90;99.90;;;;;;5072648;28;20492;-81
2022/06/10 13:13:25;;;;;;;0.00;0.00;;;22.00;99.90;;;;;;5073081;28;20055;-81
2022/06/10 13:15:53;;;;;;;0.25;0.15;;;22.00;99.90;;;;;;5072859;28;20049;-81
2022/06/10 13:18:32;;;;;;;0.00;0.00;;;22.00;99.90;;;;;;5073085;28;20040;-81
2022/06/10 13:21:14;;;;;;;0.45;0.30;;;22.10;99.90;;;;;;5073324;28;20051;-81
2022/06/10 13:24:12;;;;;;;0.00;0.00;;;22.10;99.90;;;;;;5072986;28;20044;-81
2022/06/10 13:26:38;;;;;;;0.00;0.00;;;22.00;99.90;;;;;;5072283;28;20060;-81
2022/06/10 13:29:13;;;;;;;4.53;0.80;;;22.00;99.90;;;;;;5073143;28;20044;-81
2022/06/10 13:31:54;;;;;;;0.00;0.00;;;22.00;99.90;;;;;;5072921;28;20040;-81
2022/06/10 13:34:33;;;;;;;0.10;0.10;;;22.00;99.90;;;;;;5072802;28;20044;-81
2022/06/10 13:37:20;;;;;;;0.00;0.00;;;22.00;99.90;;;;;;5073051;28;20189;-81
2022/06/10 13:39:48;;;;;;;0.00;0.00;;;22.10;99.90;;;;;;5056005;28;20037;-81